createdAt,value
2018-02-21T00:00:19.858Z,124.00
2018-02-21T00:01:20.632Z,136.00
2018-02-21T00:02:21.330Z,108.00
2018-02-21T00:03:22.060Z,132.00
2018-02-21T00:04:22.818Z,110.00
2018-02-21T00:05:23.534Z,115.00
2018-02-21T00:06:24.253Z,148.00
2018-02-21T00:07:24.971Z,114.00
2018-02-21T00:08:25.701Z,127.00
2018-02-21T00:09:26.419Z,114.00
2018-02-21T00:10:27.166Z,109.00
2018-02-21T00:11:27.895Z,122.00
2018-02-21T00:12:28.624Z,123.00
2018-02-21T00:13:29.379Z,105.00
2018-02-21T00:14:30.090Z,106.00
2018-02-21T00:15:30.818Z,133.00
2018-02-21T00:16:31.542Z,123.00
2018-02-21T00:17:32.281Z,117.00
2018-02-21T00:18:33.012Z,116.00
2018-02-21T00:19:33.777Z,99.00
2018-02-21T00:20:34.510Z,116.00
2018-02-21T00:21:35.253Z,118.00
2018-02-21T00:22:36.002Z,112.00
2018-02-21T00:23:36.692Z,124.00
2018-02-21T00:24:37.432Z,129.00
2018-02-21T00:25:38.154Z,120.00
2018-02-21T00:26:38.872Z,120.00
2018-02-21T00:27:39.592Z,126.00
2018-02-21T00:28:40.318Z,101.00
2018-02-21T00:29:41.047Z,141.00
2018-02-21T00:30:41.767Z,103.00
2018-02-21T00:31:42.487Z,123.00
2018-02-21T00:32:43.207Z,133.00
2018-02-21T00:33:43.937Z,132.00
2018-02-21T00:34:44.657Z,122.00
2018-02-21T00:35:45.403Z,117.00
2018-02-21T00:36:46.135Z,116.00
2018-02-21T00:37:46.889Z,138.00
2018-02-21T00:38:47.618Z,133.00
2018-02-21T00:39:48.371Z,123.00
2018-02-21T00:40:49.089Z,130.00
2018-02-21T00:41:49.818Z,122.00
2018-02-21T00:42:50.537Z,133.00
2018-02-21T00:43:51.258Z,122.00
2018-02-21T00:44:52.001Z,138.00
2018-02-21T00:45:52.733Z,128.00
2018-02-21T00:46:53.451Z,113.00
2018-02-21T00:47:54.181Z,115.00
2018-02-21T00:48:54.909Z,131.00
2018-02-21T00:49:55.678Z,138.00
2018-02-21T00:50:56.405Z,137.00
2018-02-21T00:51:57.170Z,120.00
2018-02-21T00:52:57.928Z,114.00
2018-02-21T00:53:58.642Z,122.00
2018-02-21T00:54:59.366Z,125.00
2018-02-21T00:56:00.112Z,93.00
2018-02-21T00:57:00.820Z,117.00
2018-02-21T00:58:01.551Z,109.00
2018-02-21T00:59:02.282Z,113.00
2018-02-21T01:00:03.011Z,111.00
2018-02-21T01:01:03.731Z,133.00
2018-02-21T01:02:04.471Z,150.00
2018-02-21T01:03:05.196Z,112.00
2018-02-21T01:04:05.922Z,137.00
2018-02-21T01:05:06.641Z,142.00
2018-02-21T01:06:07.395Z,110.00
2018-02-21T01:07:08.126Z,150.00
2018-02-21T01:08:08.858Z,122.00
2018-02-21T01:09:09.577Z,122.00
2018-02-21T01:10:10.305Z,131.00
2018-02-21T01:11:11.056Z,127.00
2018-02-21T01:12:11.777Z,135.00
2018-02-21T01:13:12.521Z,119.00
2018-02-21T01:14:13.238Z,141.00
2018-02-21T01:15:13.993Z,121.00
2018-02-21T01:16:14.711Z,116.00
2018-02-21T01:17:15.432Z,122.00
2018-02-21T01:18:16.151Z,128.00
2018-02-21T01:19:16.872Z,110.00
2018-02-21T01:20:17.601Z,134.00
2018-02-21T01:21:18.320Z,115.00
2018-02-21T01:22:19.051Z,149.00
2018-02-21T01:23:19.805Z,119.00
2018-02-21T01:24:20.525Z,116.00
2018-02-21T01:25:21.283Z,131.00
2018-02-21T01:26:22.012Z,133.00
2018-02-21T01:27:22.780Z,116.00
2018-02-21T01:28:23.548Z,142.00
2018-02-21T01:29:24.310Z,139.00
2018-02-21T01:30:25.040Z,128.00
2018-02-21T01:31:25.759Z,132.00
2018-02-21T01:32:26.502Z,135.00
2018-02-21T01:33:27.232Z,134.00
2018-02-21T01:34:27.948Z,117.00
2018-02-21T01:35:28.690Z,124.00
2018-02-21T01:36:29.420Z,117.00
2018-02-21T01:37:30.151Z,120.00
2018-02-21T01:38:30.869Z,136.00
2018-02-21T01:39:31.589Z,124.00
2018-02-21T01:40:32.332Z,131.00
2018-02-21T01:41:33.063Z,125.00
2018-02-21T01:42:33.792Z,134.00
2018-02-21T01:43:34.512Z,129.00
2018-02-21T01:44:35.242Z,130.00
2018-02-21T01:45:35.959Z,121.00
2018-02-21T01:46:36.701Z,132.00
2018-02-21T01:47:37.419Z,144.00
2018-02-21T01:48:38.140Z,145.00
2018-02-21T01:49:38.861Z,123.00
2018-02-21T01:50:39.612Z,154.00
2018-02-21T01:51:40.365Z,137.00
2018-02-21T01:52:41.084Z,135.00
2018-02-21T01:53:41.820Z,144.00
2018-02-21T01:54:42.539Z,138.00
2018-02-21T01:55:43.273Z,144.00
2018-02-21T01:56:43.981Z,129.00
2018-02-21T01:57:44.689Z,121.00
2018-02-21T01:58:45.396Z,122.00
2018-02-21T01:59:46.119Z,128.00
2018-02-21T02:00:46.838Z,133.00
2018-02-21T02:01:47.549Z,124.00
2018-02-21T02:02:48.256Z,135.00
2018-02-21T02:03:48.965Z,152.00
2018-02-21T02:04:49.674Z,152.00
2018-02-21T02:05:50.380Z,130.00
2018-02-21T02:06:51.093Z,142.00
2018-02-21T02:07:51.810Z,130.00
2018-02-21T02:08:52.517Z,136.00
2018-02-21T02:09:53.243Z,122.00
2018-02-21T02:10:53.947Z,116.00
2018-02-21T02:11:54.655Z,139.00
2018-02-21T02:12:55.364Z,127.00
2018-02-21T02:13:56.074Z,132.00
2018-02-21T02:14:56.784Z,135.00
2018-02-21T02:15:57.507Z,150.00
2018-02-21T02:16:58.215Z,136.00
2018-02-21T02:17:58.923Z,126.00
2018-02-21T02:18:59.630Z,157.00
2018-02-21T02:20:00.338Z,156.00
2018-02-21T02:21:01.060Z,143.00
2018-02-21T02:22:01.767Z,128.00
2018-02-21T02:23:02.474Z,123.00
2018-02-21T02:24:03.182Z,125.00
2018-02-21T02:25:10.159Z,163.00
2018-02-21T02:26:10.870Z,127.00
2018-02-21T02:27:11.592Z,135.00
2018-02-21T02:28:12.300Z,126.00
2018-02-21T02:41:24.506Z,145.00
2018-02-21T02:42:25.216Z,123.00
2018-02-21T02:43:25.936Z,129.00
2018-02-21T02:44:26.644Z,160.00
2018-02-21T02:45:27.352Z,136.00
2018-02-21T02:46:28.060Z,129.00
2018-02-21T02:47:28.768Z,117.00
2018-02-21T02:48:29.476Z,136.00
2018-02-21T02:49:30.189Z,135.00
2018-02-21T02:50:30.892Z,153.00
2018-02-21T02:51:31.600Z,145.00
2018-02-21T02:52:32.307Z,136.00
2018-02-21T02:53:33.017Z,126.00
2018-02-21T02:54:33.738Z,131.00
2018-02-21T02:55:34.459Z,133.00
2018-02-21T02:56:35.167Z,126.00
2018-02-21T02:57:35.875Z,149.00
2018-02-21T02:58:36.582Z,126.00
2018-02-21T02:59:37.289Z,154.00
2018-02-21T03:00:38.002Z,129.00
2018-02-21T03:01:38.706Z,131.00
2018-02-21T03:02:39.426Z,133.00
2018-02-21T03:03:40.137Z,123.00
2018-02-21T03:04:40.841Z,140.00
2018-02-21T03:05:41.548Z,136.00
2018-02-21T03:06:42.255Z,142.00
2018-02-21T03:07:42.963Z,129.00
2018-02-21T03:08:43.683Z,123.00
2018-02-21T03:09:44.392Z,142.00
2018-02-21T03:10:45.101Z,139.00
2018-02-21T03:11:45.811Z,123.00
2018-02-21T03:12:46.520Z,129.00
2018-02-21T03:13:47.229Z,146.00
2018-02-21T03:14:47.937Z,138.00
2018-02-21T03:15:48.644Z,131.00
2018-02-21T03:16:49.349Z,118.00
2018-02-21T03:17:50.059Z,128.00
2018-02-21T03:18:50.770Z,148.00
2018-02-21T03:19:51.476Z,154.00
2018-02-21T03:20:52.183Z,133.00
2018-02-21T03:21:52.895Z,140.00
2018-02-21T03:22:53.618Z,137.00
2018-02-21T03:23:54.323Z,144.00
2018-02-21T03:24:55.030Z,141.00
2018-02-21T03:25:55.737Z,149.00
2018-02-21T03:26:56.459Z,117.00
2018-02-21T03:27:57.170Z,122.00
2018-02-21T03:28:57.873Z,128.00
2018-02-21T03:29:58.578Z,139.00
2018-02-21T03:30:59.287Z,127.00
2018-02-21T03:31:59.996Z,133.00
2018-02-21T03:33:00.704Z,125.00
2018-02-21T03:34:01.426Z,134.00
2018-02-21T03:35:02.134Z,140.00
2018-02-21T03:36:02.842Z,136.00
2018-02-21T03:37:03.550Z,132.00
2018-02-21T03:38:04.275Z,139.00
2018-02-21T03:39:04.982Z,112.00
2018-02-21T03:40:05.690Z,120.00
2018-02-21T03:41:06.397Z,137.00
2018-02-21T03:42:07.121Z,133.00
2018-02-21T03:43:07.825Z,133.00
2018-02-21T03:44:08.535Z,126.00
2018-02-21T03:45:09.242Z,132.00
2018-02-21T03:46:09.964Z,133.00
2018-02-21T03:47:10.684Z,123.00
2018-02-21T03:48:11.408Z,131.00
2018-02-21T03:49:12.118Z,130.00
2018-02-21T03:50:12.825Z,134.00
2018-02-21T03:51:13.533Z,120.00
2018-02-21T03:52:14.239Z,131.00
2018-02-21T03:53:14.952Z,139.00
2018-02-21T03:54:15.669Z,121.00
2018-02-21T03:55:16.391Z,150.00
2018-02-21T03:56:17.098Z,136.00
2018-02-21T03:57:17.806Z,140.00
2018-02-21T03:58:18.514Z,126.00
2018-02-21T03:59:19.222Z,123.00
2018-02-21T04:00:19.930Z,125.00
2018-02-21T04:01:20.642Z,109.00
2018-02-21T04:02:21.346Z,113.00
2018-02-21T04:03:22.054Z,126.00
2018-02-21T04:04:22.762Z,129.00
2018-02-21T04:05:23.470Z,138.00
2018-02-21T04:06:24.176Z,129.00
2018-02-21T04:07:24.887Z,137.00
2018-02-21T04:08:25.611Z,131.00
2018-02-21T04:09:26.334Z,108.00
2018-02-21T04:10:27.044Z,125.00
2018-02-21T04:11:27.759Z,131.00
2018-02-21T04:12:28.474Z,123.00
2018-02-21T04:13:29.185Z,124.00
2018-02-21T04:14:29.913Z,135.00
2018-02-21T04:15:30.616Z,151.00
2018-02-21T04:16:31.324Z,139.00
2018-02-21T04:17:32.034Z,116.00
2018-02-21T04:18:32.741Z,113.00
2018-02-21T04:19:33.461Z,130.00
2018-02-21T04:20:34.183Z,118.00
2018-02-21T04:21:34.893Z,125.00
2018-02-21T04:22:35.602Z,131.00
2018-02-21T04:23:36.314Z,136.00
2018-02-21T04:24:37.016Z,135.00
2018-02-21T04:25:37.723Z,131.00
2018-02-21T04:26:38.432Z,125.00
2018-02-21T04:27:39.140Z,138.00
2018-02-21T04:28:39.849Z,142.00
2018-02-21T04:29:40.570Z,111.00
2018-02-21T04:30:41.293Z,125.00
2018-02-21T04:31:42.001Z,114.00
2018-02-21T04:32:42.709Z,148.00
2018-02-21T04:33:43.431Z,131.00
2018-02-21T04:34:44.139Z,142.00
2018-02-21T04:35:44.849Z,114.00
2018-02-21T04:36:45.558Z,121.00
2018-02-21T04:37:46.309Z,128.00
2018-02-21T04:38:46.974Z,123.00
2018-02-21T04:39:47.680Z,138.00
2018-02-21T04:40:48.387Z,110.00
2018-02-21T04:41:49.097Z,119.00
2018-02-21T04:42:49.804Z,139.00
2018-02-21T04:43:50.515Z,134.00
2018-02-21T04:44:51.222Z,116.00
2018-02-21T04:45:51.935Z,121.00
2018-02-21T04:46:52.641Z,114.00
2018-02-21T04:47:53.363Z,122.00
2018-02-21T04:48:54.071Z,154.00
2018-02-21T04:49:54.780Z,119.00
2018-02-21T04:50:55.491Z,121.00
2018-02-21T04:51:56.197Z,113.00
2018-02-21T04:52:56.904Z,151.00
2018-02-21T04:53:57.627Z,128.00
2018-02-21T04:54:58.334Z,122.00
2018-02-21T04:55:59.042Z,125.00
2018-02-21T04:56:59.748Z,122.00
2018-02-21T04:58:00.455Z,124.00
2018-02-21T04:59:01.162Z,123.00
2018-02-21T05:00:01.870Z,123.00
2018-02-21T05:01:02.577Z,125.00
2018-02-21T05:02:03.289Z,136.00
2018-02-21T05:03:03.994Z,120.00
2018-02-21T05:04:04.703Z,121.00
2018-02-21T05:05:05.411Z,136.00
2018-02-21T05:06:06.119Z,115.00
2018-02-21T05:07:06.829Z,123.00
2018-02-21T05:08:07.550Z,126.00
2018-02-21T05:09:08.255Z,146.00
2018-02-21T05:10:08.963Z,121.00
2018-02-21T05:11:09.672Z,117.00
2018-02-21T05:12:10.379Z,135.00
2018-02-21T05:13:11.099Z,105.00
2018-02-21T05:14:11.812Z,129.00
2018-02-21T05:15:12.517Z,119.00
2018-02-21T05:16:13.238Z,146.00
2018-02-21T05:17:13.958Z,129.00
2018-02-21T05:18:14.667Z,142.00
2018-02-21T05:19:15.376Z,138.00
2018-02-21T05:20:16.086Z,131.00
2018-02-21T05:21:16.795Z,126.00
2018-02-21T05:22:17.503Z,150.00
2018-02-21T05:23:18.225Z,133.00
2018-02-21T05:24:18.947Z,126.00
2018-02-21T05:25:19.667Z,143.00
2018-02-21T05:26:20.375Z,123.00
2018-02-21T05:27:21.083Z,107.00
2018-02-21T05:28:21.859Z,131.00
2018-02-21T05:29:22.515Z,112.00
2018-02-21T05:30:23.223Z,111.00
2018-02-21T05:31:23.931Z,119.00
2018-02-21T05:32:24.652Z,132.00
2018-02-21T05:33:25.360Z,121.00
2018-02-21T05:34:26.070Z,118.00
2018-02-21T05:35:26.790Z,142.00
2018-02-21T05:36:27.497Z,150.00
2018-02-21T05:37:28.205Z,118.00
2018-02-21T05:38:28.926Z,121.00
2018-02-21T05:39:29.632Z,126.00
2018-02-21T05:40:30.339Z,127.00
2018-02-21T05:41:31.059Z,109.00
2018-02-21T05:42:31.770Z,119.00
2018-02-21T05:43:32.490Z,119.00
2018-02-21T05:44:33.210Z,125.00
2018-02-21T05:45:33.921Z,137.00
2018-02-21T05:46:34.629Z,123.00
2018-02-21T05:47:35.337Z,118.00
2018-02-21T05:48:36.044Z,128.00
2018-02-21T05:49:36.751Z,116.00
2018-02-21T05:50:37.461Z,128.00
2018-02-21T05:51:38.179Z,118.00
2018-02-21T05:52:38.899Z,120.00
2018-02-21T05:53:39.593Z,107.00
2018-02-21T05:54:40.321Z,114.00
2018-02-21T05:55:41.022Z,122.00
2018-02-21T05:56:41.732Z,147.00
2018-02-21T05:57:42.438Z,114.00
2018-02-21T05:58:43.147Z,122.00
2018-02-21T05:59:43.856Z,137.00
2018-02-21T06:00:44.564Z,126.00
2018-02-21T06:01:45.285Z,126.00
2018-02-21T06:02:45.994Z,114.00
2018-02-21T06:03:46.703Z,137.00
2018-02-21T06:04:47.410Z,110.00
2018-02-21T06:05:48.116Z,120.00
2018-02-21T06:06:48.824Z,122.00
2018-02-21T06:07:49.531Z,119.00
2018-02-21T06:08:50.240Z,119.00
2018-02-21T06:09:50.949Z,119.00
2018-02-21T06:10:51.656Z,111.00
2018-02-21T06:11:52.364Z,127.00
2018-02-21T06:12:53.072Z,121.00
2018-02-21T06:13:53.795Z,111.00
2018-02-21T06:14:54.504Z,104.00
2018-02-21T06:15:55.224Z,123.00
2018-02-21T06:16:55.932Z,116.00
2018-02-21T06:17:56.642Z,119.00
2018-02-21T06:18:57.352Z,129.00
2018-02-21T06:19:58.062Z,130.00
2018-02-21T06:20:58.770Z,115.00
2018-02-21T06:21:59.478Z,107.00
2018-02-21T06:23:00.186Z,134.00
2018-02-21T06:24:00.895Z,125.00
2018-02-21T06:25:01.609Z,128.00
2018-02-21T06:26:02.313Z,100.00
2018-02-21T06:27:03.038Z,115.00
2018-02-21T06:28:03.748Z,149.00
2018-02-21T06:29:04.471Z,137.00
2018-02-21T06:30:05.183Z,116.00
2018-02-21T06:31:05.889Z,102.00
2018-02-21T06:32:06.604Z,115.00
2018-02-21T06:33:07.324Z,119.00
2018-02-21T06:34:08.047Z,117.00
2018-02-21T06:35:08.757Z,128.00
2018-02-21T06:36:09.485Z,113.00
2018-02-21T06:37:10.206Z,131.00
2018-02-21T06:38:10.920Z,115.00
2018-02-21T06:39:11.631Z,130.00
2018-02-21T06:40:12.355Z,124.00
2018-02-21T06:41:13.065Z,122.00
2018-02-21T06:42:13.778Z,102.00
2018-02-21T06:43:14.490Z,110.00
2018-02-21T06:44:15.201Z,131.00
2018-02-21T06:45:15.910Z,137.00
2018-02-21T06:46:16.622Z,134.00
2018-02-21T06:47:17.334Z,131.00
2018-02-21T06:48:18.045Z,124.00
2018-02-21T06:49:18.755Z,102.00
2018-02-21T06:50:19.480Z,114.00
2018-02-21T06:51:20.205Z,126.00
2018-02-21T06:52:20.917Z,108.00
2018-02-21T06:53:21.627Z,127.00
2018-02-21T06:54:22.336Z,122.00
2018-02-21T06:55:23.049Z,144.00
2018-02-21T06:56:23.760Z,114.00
2018-02-21T06:57:24.470Z,133.00
2018-02-21T06:58:25.181Z,118.00
2018-02-21T06:59:25.894Z,122.00
2018-02-21T07:00:26.607Z,124.00
2018-02-21T07:01:27.318Z,129.00
2018-02-21T07:02:28.044Z,98.00
2018-02-21T07:03:28.757Z,139.00
2018-02-21T07:04:29.473Z,103.00
2018-02-21T07:05:30.182Z,121.00
2018-02-21T07:06:30.894Z,131.00
2018-02-21T07:07:31.606Z,123.00
2018-02-21T07:08:32.320Z,109.00
2018-02-21T07:09:33.034Z,105.00
2018-02-21T07:10:33.747Z,121.00
2018-02-21T07:11:34.458Z,127.00
2018-02-21T07:12:35.171Z,119.00
2018-02-21T07:13:35.882Z,111.00
2018-02-21T07:14:36.592Z,107.00
2018-02-21T07:15:37.350Z,126.00
2018-02-21T07:16:38.020Z,116.00
2018-02-21T07:17:38.731Z,109.00
2018-02-21T07:18:39.443Z,129.00
2018-02-21T07:19:40.169Z,111.00
2018-02-21T07:20:40.901Z,125.00
2018-02-21T07:21:41.601Z,113.00
2018-02-21T07:22:42.307Z,116.00
2018-02-21T07:23:43.022Z,106.00
2018-02-21T07:24:43.734Z,118.00
2018-02-21T07:25:44.446Z,98.00
2018-02-21T07:26:45.175Z,108.00
2018-02-21T07:27:45.899Z,99.00
2018-02-21T07:28:46.612Z,107.00
2018-02-21T07:29:47.333Z,126.00
2018-02-21T07:30:48.041Z,102.00
2018-02-21T07:31:48.767Z,105.00
2018-02-21T07:32:49.482Z,112.00
2018-02-21T07:33:50.210Z,108.00
2018-02-21T07:34:50.927Z,110.00
2018-02-21T07:35:51.642Z,121.00
2018-02-21T07:36:52.357Z,102.00
2018-02-21T07:37:53.075Z,107.00
2018-02-21T07:38:53.790Z,112.00
2018-02-21T07:39:54.504Z,114.00
2018-02-21T07:40:55.222Z,105.00
2018-02-21T07:41:55.936Z,110.00
2018-02-21T07:42:56.652Z,106.00
2018-02-21T07:43:57.369Z,123.00
2018-02-21T07:44:58.085Z,132.00
2018-02-21T07:45:58.800Z,104.00
2018-02-21T07:46:59.516Z,95.00
2018-02-21T07:48:00.232Z,96.00
2018-02-21T07:49:00.960Z,110.00
2018-02-21T07:50:01.669Z,93.00
2018-02-21T07:51:02.421Z,96.00
2018-02-21T07:52:03.099Z,103.00
2018-02-21T07:53:03.816Z,108.00
2018-02-21T07:54:04.535Z,110.00
2018-02-21T07:55:05.266Z,89.00
2018-02-21T07:56:05.982Z,97.00
2018-02-21T07:57:06.699Z,108.00
2018-02-21T07:58:07.416Z,98.00
2018-02-21T07:59:08.135Z,107.00
2018-02-21T08:00:08.869Z,115.00
2018-02-21T08:01:09.587Z,104.00
2018-02-21T08:02:10.318Z,108.00
2018-02-21T08:03:11.038Z,77.00
2018-02-21T08:04:11.756Z,95.00
2018-02-21T08:05:12.491Z,104.00
2018-02-21T08:06:13.210Z,93.00
2018-02-21T08:07:13.935Z,111.00
2018-02-21T08:08:14.653Z,90.00
2018-02-21T08:09:15.374Z,106.00
2018-02-21T08:10:16.096Z,97.00
2018-02-21T08:11:16.816Z,94.00
2018-02-21T08:12:17.550Z,96.00
2018-02-21T08:13:18.271Z,91.00
2018-02-21T08:14:19.005Z,97.00
2018-02-21T08:15:19.772Z,99.00
2018-02-21T08:16:20.461Z,107.00
2018-02-21T08:17:21.182Z,94.00
2018-02-21T08:18:21.918Z,110.00
2018-02-21T08:19:22.652Z,84.00
2018-02-21T08:20:23.374Z,92.00
2018-02-21T08:21:24.100Z,102.00
2018-02-21T08:22:24.819Z,83.00
2018-02-21T08:23:25.557Z,104.00
2018-02-21T08:24:26.279Z,96.00
2018-02-21T08:25:27.001Z,76.00
2018-02-21T08:26:27.723Z,85.00
2018-02-21T08:27:28.446Z,109.00
2018-02-21T08:28:29.169Z,92.00
2018-02-21T08:29:29.893Z,82.00
2018-02-21T08:30:30.617Z,127.00
2018-02-21T08:31:31.343Z,130.00
2018-02-21T08:32:32.069Z,89.00
2018-02-21T08:33:32.806Z,100.00
2018-02-21T08:34:33.531Z,100.00
2018-02-21T08:35:34.255Z,106.00
2018-02-21T08:36:35.019Z,92.00
2018-02-21T08:37:35.702Z,83.00
2018-02-21T08:38:36.427Z,84.00
2018-02-21T08:39:37.151Z,98.00
2018-02-21T08:40:37.901Z,79.00
2018-02-21T08:41:38.601Z,82.00
2018-02-21T08:42:39.327Z,103.00
2018-02-21T08:43:40.066Z,84.00
2018-02-21T08:44:40.792Z,96.00
2018-02-21T08:45:41.518Z,92.00
2018-02-21T08:46:42.246Z,88.00
2018-02-21T08:47:42.973Z,88.00
2018-02-21T08:48:43.711Z,89.00
2018-02-21T08:49:44.452Z,98.00
2018-02-21T08:50:45.190Z,86.00
2018-02-21T08:51:45.917Z,77.00
2018-02-21T08:52:46.645Z,85.00
2018-02-21T08:53:47.376Z,78.00
2018-02-21T08:54:48.112Z,79.00
2018-02-21T08:55:48.840Z,90.00
2018-02-21T08:56:49.568Z,84.00
2018-02-21T08:57:50.294Z,92.00
2018-02-21T08:58:51.047Z,77.00
2018-02-21T08:59:51.762Z,83.00
2018-02-21T09:00:52.488Z,74.00
2018-02-21T09:01:53.215Z,86.00
2018-02-21T09:02:53.948Z,79.00
2018-02-21T09:03:54.672Z,77.00
2018-02-21T09:04:55.401Z,79.00
2018-02-21T09:05:56.128Z,79.00
2018-02-21T09:06:56.868Z,89.00
2018-02-21T09:07:57.595Z,84.00
2018-02-21T09:08:58.325Z,80.00
2018-02-21T09:09:59.066Z,86.00
2018-02-21T09:10:59.830Z,84.00
2018-02-21T09:12:00.524Z,68.00
2018-02-21T09:13:01.268Z,73.00
2018-02-21T09:14:01.995Z,87.00
2018-02-21T09:15:02.739Z,98.00
2018-02-21T09:16:03.467Z,78.00
2018-02-21T09:17:04.210Z,74.00
2018-02-21T09:18:04.941Z,79.00
2018-02-21T09:19:05.669Z,69.00
2018-02-21T09:20:06.403Z,77.00
2018-02-21T09:21:07.131Z,82.00
2018-02-21T09:22:07.873Z,82.00
2018-02-21T09:23:08.602Z,77.00
2018-02-21T09:24:09.332Z,62.00
2018-02-21T09:25:10.062Z,70.00
2018-02-21T09:26:10.792Z,74.00
2018-02-21T09:27:11.522Z,64.00
2018-02-21T09:28:12.265Z,57.00
2018-02-21T09:29:13.005Z,73.00
2018-02-21T09:30:13.729Z,77.00
2018-02-21T09:31:14.460Z,69.00
2018-02-21T09:32:15.200Z,73.00
2018-02-21T09:33:15.931Z,87.00
2018-02-21T09:34:16.677Z,65.00
2018-02-21T09:35:17.409Z,83.00
2018-02-21T09:36:18.139Z,55.00
2018-02-21T09:37:18.871Z,72.00
2018-02-21T09:38:19.616Z,75.00
2018-02-21T09:39:20.349Z,86.00
2018-02-21T09:40:21.095Z,66.00
2018-02-21T09:41:21.827Z,63.00
2018-02-21T09:42:22.563Z,62.00
2018-02-21T09:43:23.297Z,74.00
2018-02-21T09:44:24.032Z,54.00
2018-02-21T09:45:24.768Z,61.00
2018-02-21T09:46:25.503Z,66.00
2018-02-21T09:47:26.238Z,79.00
2018-02-21T09:48:26.973Z,73.00
2018-02-21T09:49:27.706Z,57.00
2018-02-21T09:50:28.441Z,57.00
2018-02-21T09:51:29.177Z,66.00
2018-02-21T09:52:29.927Z,63.00
2018-02-21T09:53:30.667Z,83.00
2018-02-21T09:54:31.402Z,66.00
2018-02-21T09:55:32.136Z,61.00
2018-02-21T09:56:32.871Z,68.00
2018-02-21T09:57:33.604Z,67.00
2018-02-21T09:58:34.339Z,76.00
2018-02-21T09:59:35.088Z,65.00
2018-02-21T10:00:35.836Z,46.00
2018-02-21T10:01:36.572Z,62.00
2018-02-21T10:02:37.311Z,70.00
2018-02-21T10:03:38.048Z,68.00
2018-02-21T10:04:38.784Z,74.00
2018-02-21T10:05:39.521Z,75.00
2018-02-21T10:06:40.259Z,63.00
2018-02-21T10:07:41.005Z,80.00
2018-02-21T10:08:41.748Z,67.00
2018-02-21T10:09:42.487Z,58.00
2018-02-21T10:10:43.221Z,69.00
2018-02-21T10:11:44.209Z,62.00
2018-02-21T10:12:44.960Z,64.00
2018-02-21T10:13:45.697Z,61.00
2018-02-21T10:14:46.436Z,67.00
2018-02-21T10:15:47.172Z,62.00
2018-02-21T10:16:47.906Z,63.00
2018-02-21T10:17:48.645Z,60.00
2018-02-21T10:18:49.381Z,63.00
2018-02-21T10:19:50.119Z,56.00
2018-02-21T10:20:50.855Z,71.00
2018-02-21T10:21:51.595Z,65.00
2018-02-21T10:22:52.333Z,58.00
2018-02-21T10:23:53.066Z,67.00
2018-02-21T10:24:53.805Z,58.00
2018-02-21T10:25:54.557Z,67.00
2018-02-21T10:26:55.295Z,60.00
2018-02-21T10:27:56.034Z,60.00
2018-02-21T10:28:56.774Z,74.00
2018-02-21T10:29:57.510Z,61.00
2018-02-21T10:30:58.251Z,69.00
2018-02-21T10:31:58.986Z,56.00
2018-02-21T10:32:59.725Z,57.00
2018-02-21T10:34:00.460Z,70.00
2018-02-21T10:35:01.199Z,64.00
2018-02-21T10:36:01.949Z,69.00
2018-02-21T10:37:02.687Z,63.00
2018-02-21T10:38:03.422Z,58.00
2018-02-21T10:39:04.160Z,62.00
2018-02-21T10:40:04.898Z,63.00
2018-02-21T10:41:05.634Z,72.00
2018-02-21T10:42:06.369Z,59.00
2018-02-21T10:43:07.115Z,64.00
2018-02-21T10:44:07.849Z,63.00
2018-02-21T10:45:08.597Z,54.00
2018-02-21T10:46:09.349Z,75.00
2018-02-21T10:47:10.085Z,64.00
2018-02-21T10:48:10.838Z,68.00
2018-02-21T10:49:11.573Z,57.00
2018-02-21T10:50:12.309Z,74.00
2018-02-21T10:51:13.043Z,61.00
2018-02-21T10:52:13.792Z,67.00
2018-02-21T10:53:14.540Z,51.00
2018-02-21T10:54:15.287Z,53.00
2018-02-21T10:55:16.023Z,62.00
2018-02-21T10:56:16.756Z,67.00
2018-02-21T10:57:17.491Z,63.00
2018-02-21T10:58:18.226Z,82.00
2018-02-21T10:59:18.961Z,58.00
2018-02-21T11:00:19.698Z,60.00
2018-02-21T11:01:20.432Z,63.00
2018-02-21T11:02:21.181Z,58.00
2018-02-21T11:03:21.927Z,50.00
2018-02-21T11:04:22.665Z,67.00
2018-02-21T11:05:23.411Z,64.00
2018-02-21T11:06:24.160Z,64.00
2018-02-21T11:07:24.894Z,53.00
2018-02-21T11:08:25.640Z,60.00
2018-02-21T11:09:26.392Z,53.00
2018-02-21T11:10:27.127Z,57.00
2018-02-21T11:11:27.866Z,59.00
2018-02-21T11:12:28.604Z,54.00
2018-02-21T11:13:29.342Z,62.00
2018-02-21T11:14:30.080Z,54.00
2018-02-21T11:15:30.817Z,46.00
2018-02-21T11:16:31.568Z,70.00
2018-02-21T11:17:32.313Z,60.00
2018-02-21T11:18:33.051Z,59.00
2018-02-21T11:19:33.791Z,56.00
2018-02-21T11:20:34.538Z,52.00
2018-02-21T11:21:35.285Z,55.00
2018-02-21T11:22:36.038Z,51.00
2018-02-21T11:23:36.779Z,58.00
2018-02-21T11:24:37.510Z,48.00
2018-02-21T11:25:38.245Z,62.00
2018-02-21T11:26:38.980Z,46.00
2018-02-21T11:27:39.713Z,56.00
2018-02-21T11:28:40.448Z,43.00
2018-02-21T11:29:41.185Z,68.00
2018-02-21T11:30:41.920Z,55.00
2018-02-21T11:31:42.654Z,46.00
2018-02-21T11:32:43.389Z,65.00
2018-02-21T11:33:44.123Z,59.00
2018-02-21T11:34:44.858Z,50.00
2018-02-21T11:35:45.594Z,43.00
2018-02-21T11:36:46.329Z,49.00
2018-02-21T11:37:47.066Z,46.00
2018-02-21T11:38:47.800Z,56.00
2018-02-21T11:39:48.535Z,49.00
2018-02-21T11:40:49.269Z,57.00
2018-02-21T11:41:50.003Z,47.00
2018-02-21T11:42:50.739Z,50.00
2018-02-21T11:43:51.472Z,53.00
2018-02-21T11:44:52.207Z,40.00
2018-02-21T11:45:52.955Z,64.00
2018-02-21T11:46:53.690Z,54.00
2018-02-21T11:47:54.425Z,40.00
2018-02-21T11:48:55.159Z,54.00
2018-02-21T11:49:55.894Z,44.00
2018-02-21T11:50:56.651Z,45.00
2018-02-21T11:51:57.364Z,51.00
2018-02-21T11:52:58.100Z,54.00
2018-02-21T11:53:58.834Z,52.00
2018-02-21T11:54:59.572Z,40.00
2018-02-21T11:56:00.308Z,45.00
2018-02-21T11:57:01.044Z,51.00
2018-02-21T11:58:01.778Z,50.00
2018-02-21T11:59:02.534Z,59.00
2018-02-21T12:00:03.276Z,51.00
2018-02-21T12:01:04.024Z,40.00
2018-02-21T12:02:04.761Z,49.00
2018-02-21T12:03:05.496Z,47.00
2018-02-21T12:04:06.244Z,58.00
2018-02-21T12:05:06.980Z,49.00
2018-02-21T12:06:07.730Z,47.00
2018-02-21T12:07:08.467Z,48.00
2018-02-21T12:08:09.201Z,50.00
2018-02-21T12:09:09.936Z,53.00
2018-02-21T12:10:10.679Z,50.00
2018-02-21T12:11:11.410Z,45.00
2018-02-21T12:12:12.146Z,37.00
2018-02-21T12:13:12.880Z,55.00
2018-02-21T12:14:13.632Z,48.00
2018-02-21T12:15:14.365Z,40.00
2018-02-21T12:16:15.115Z,46.00
2018-02-21T12:17:15.846Z,57.00
2018-02-21T12:18:16.580Z,46.00
2018-02-21T12:19:17.314Z,46.00
2018-02-21T12:20:18.048Z,50.00
2018-02-21T12:21:18.797Z,54.00
2018-02-21T12:22:19.532Z,51.00
2018-02-21T12:23:20.281Z,46.00
2018-02-21T12:24:21.015Z,46.00
2018-02-21T12:25:21.762Z,51.00
2018-02-21T12:26:22.510Z,50.00
2018-02-21T12:27:23.244Z,50.00
2018-02-21T12:28:23.977Z,62.00
2018-02-21T12:29:24.726Z,57.00
2018-02-21T12:30:25.463Z,42.00
2018-02-21T12:31:26.199Z,39.00
2018-02-21T12:32:26.932Z,44.00
2018-02-21T12:33:27.678Z,45.00
2018-02-21T12:34:28.416Z,55.00
2018-02-21T12:35:29.161Z,52.00
2018-02-21T12:36:29.895Z,58.00
2018-02-21T12:37:30.642Z,52.00
2018-02-21T12:38:31.378Z,58.00
2018-02-21T12:39:32.124Z,51.00
2018-02-21T12:40:32.872Z,54.00
2018-02-21T12:41:33.607Z,50.00
2018-02-21T12:42:34.342Z,48.00
2018-02-21T12:43:35.077Z,52.00
2018-02-21T12:44:35.810Z,51.00
2018-02-21T12:45:36.545Z,57.00
2018-02-21T12:46:37.281Z,55.00
2018-02-21T12:47:38.011Z,47.00
2018-02-21T12:48:38.746Z,47.00
2018-02-21T12:49:39.479Z,55.00
2018-02-21T12:50:40.229Z,39.00
2018-02-21T12:51:40.961Z,53.00
2018-02-21T12:52:41.693Z,54.00
2018-02-21T12:53:42.428Z,43.00
2018-02-21T12:54:43.160Z,57.00
2018-02-21T12:55:43.892Z,44.00
2018-02-21T12:56:44.630Z,57.00
2018-02-21T12:57:45.361Z,44.00
2018-02-21T12:58:46.099Z,56.00